Time;durP1;ratioP1;P1;durP2;ratioP2;P2;SDS_P1;SDS_P2;PMS_P1;PMS_P2;Temp;Humidity;BMP_temperature;BMP_pressure;BME280_temperature;BME280_humidity;BME280_pressure;Samples;Min_cycle;Max_cycle;Signal;HPM_P1;HPM_P2
2022/08/28 00:00:00;;;;;;;14.93;13.20;;;23.20;94.30;;;;;;6111923;23;20186;-85
2022/08/28 00:02:27;;;;;;;14.68;13.13;;;23.30;94.30;;;;;;6135585;23;20161;-85
2022/08/28 00:04:54;;;;;;;15.18;13.65;;;23.20;94.30;;;;;;6111092;23;20158;-84
2022/08/28 00:07:21;;;;;;;15.90;13.73;;;23.20;94.10;;;;;;6063100;23;20224;-85
2022/08/28 00:09:47;;;;;;;14.40;12.88;;;23.20;94.20;;;;;;6086419;23;20205;-85
2022/08/28 00:12:14;;;;;;;14.63;13.05;;;23.20;94.10;;;;;;6136110;23;20245;-85
2022/08/28 00:14:41;;;;;;;14.73;12.90;;;23.20;94.30;;;;;;6110783;23;20172;-84
2022/08/28 00:17:08;;;;;;;15.07;13.23;;;23.20;94.20;;;;;;6135185;23;20154;-85
2022/08/28 00:19:35;;;;;;;14.85;13.25;;;23.20;94.30;;;;;;6135399;23;20158;-84
2022/08/28 00:22:03;;;;;;;14.27;12.82;;;23.20;94.30;;;;;;6087087;23;20158;-84
2022/08/28 00:24:29;;;;;;;14.60;13.05;;;23.20;94.20;;;;;;6136027;23;20158;-84
2022/08/28 00:29:38;;;;;;;15.70;13.95;;;23.20;94.30;;;;;;6121182;23;20181;-85
2022/08/28 00:32:07;;;;;;;14.23;12.73;;;23.20;94.30;;;;;;6136075;23;20151;-84
2022/08/28 00:34:33;;;;;;;15.48;13.40;;;23.20;94.30;;;;;;6187300;23;20130;-84
2022/08/28 00:36:59;;;;;;;15.63;13.77;;;23.20;94.30;;;;;;6160498;23;20154;-85
2022/08/28 00:39:25;;;;;;;14.75;13.18;;;23.20;94.40;;;;;;6186968;23;20142;-85
2022/08/28 00:41:51;;;;;;;14.77;13.27;;;23.20;94.40;;;;;;6160896;23;20150;-85
2022/08/28 00:44:21;;;;;;;15.40;13.60;;;23.10;94.30;;;;;;6186884;23;20138;-85
2022/08/28 00:46:49;;;;;;;14.98;13.35;;;23.10;94.20;;;;;;6136228;23;20155;-84
2022/08/28 00:49:16;;;;;;;14.75;12.95;;;23.20;94.30;;;;;;6160365;23;20154;-84
2022/08/28 00:54:20;;;;;;;16.52;14.45;;;23.20;94.10;;;;;;6163089;23;20210;-85
2022/08/28 00:56:46;;;;;;;14.77;13.18;;;23.10;94.30;;;;;;6160147;23;20158;-85
2022/08/28 00:59:14;;;;;;;15.05;13.40;;;23.10;94.30;;;;;;6186820;23;20134;-85
2022/08/28 01:01:40;;;;;;;15.55;13.95;;;23.10;94.20;;;;;;6112035;23;20162;-85
2022/08/28 01:04:06;;;;;;;16.15;13.27;;;23.10;94.30;;;;;;6160549;23;20139;-84
2022/08/28 01:06:33;;;;;;;15.32;13.60;;;23.20;94.40;;;;;;6135822;23;20154;-85
2022/08/28 01:08:59;;;;;;;14.52;12.90;;;23.20;94.30;;;;;;6111717;23;20180;-85
2022/08/28 01:11:25;;;;;;;14.82;13.20;;;23.10;94.30;;;;;;6159921;23;20654;-84
2022/08/28 01:13:53;;;;;;;14.85;13.25;;;23.10;94.40;;;;;;6136306;23;20139;-84
2022/08/28 01:16:21;;;;;;;14.95;13.35;;;23.10;94.30;;;;;;6160033;23;20649;-84
2022/08/28 01:18:48;;;;;;;15.13;13.18;;;23.10;94.30;;;;;;6135890;23;20143;-84
2022/08/28 01:21:28;;;;;;;14.85;12.85;;;23.20;94.40;;;;;;6112088;23;20151;-85
2022/08/28 01:23:56;;;;;;;14.73;13.13;;;23.10;94.40;;;;;;6135363;23;20143;-85
2022/08/28 01:26:23;;;;;;;14.85;13.25;;;23.10;94.40;;;;;;6135910;23;20193;-84
2022/08/28 01:28:49;;;;;;;14.45;12.93;;;23.10;94.40;;;;;;6160662;23;20127;-85
2022/08/28 01:31:15;;;;;;;14.93;13.32;;;23.10;94.30;;;;;;6160538;23;20163;-85
2022/08/28 01:33:41;;;;;;;14.25;12.75;;;23.10;94.30;;;;;;6111903;23;20150;-85
2022/08/28 01:36:09;;;;;;;17.08;13.90;;;23.10;94.40;;;;;;6135577;23;20478;-85
2022/08/28 01:38:36;;;;;;;14.98;13.20;;;23.10;94.30;;;;;;6135684;23;20142;-85
2022/08/28 01:41:01;;;;;;;14.57;13.07;;;23.10;94.40;;;;;;6159896;23;20174;-84
2022/08/28 01:43:27;;;;;;;14.13;12.55;;;23.10;94.40;;;;;;6159863;23;20150;-84
2022/08/28 01:45:56;;;;;;;14.85;13.25;;;23.10;94.40;;;;;;6135507;23;20151;-85
2022/08/28 01:48:23;;;;;;;15.40;13.25;;;23.00;94.40;;;;;;6136161;23;20563;-85
2022/08/28 01:50:49;;;;;;;14.38;12.88;;;23.10;94.30;;;;;;6160155;23;20246;-85
2022/08/28 01:53:17;;;;;;;13.95;12.45;;;23.10;94.40;;;;;;6110980;23;20534;-84
2022/08/28 01:55:42;;;;;;;14.70;12.98;;;23.10;94.30;;;;;;6135601;23;20138;-84
2022/08/28 01:58:08;;;;;;;14.18;12.68;;;23.10;94.40;;;;;;6135202;23;20147;-84
2022/08/28 02:00:34;;;;;;;13.85;12.35;;;23.10;94.20;;;;;;6159757;23;20150;-85
2022/08/28 02:03:00;;;;;;;13.57;12.18;;;23.10;94.30;;;;;;6159777;23;20210;-85
2022/08/28 02:05:27;;;;;;;14.23;12.73;;;23.10;94.30;;;;;;6135238;23;20138;-85
2022/08/28 02:07:52;;;;;;;15.05;13.50;;;23.00;94.20;;;;;;6111013;23;20149;-85
2022/08/28 02:10:21;;;;;;;13.73;12.27;;;23.00;94.20;;;;;;6134792;23;20194;-85
2022/08/28 02:12:48;;;;;;;15.05;13.45;;;23.10;94.10;;;;;;6111529;23;20185;-85
2022/08/28 02:15:13;;;;;;;14.00;12.50;;;23.10;94.40;;;;;;6159868;23;20563;-84
2022/08/28 02:17:39;;;;;;;13.88;12.38;;;23.00;94.10;;;;;;6159426;23;20211;-85
2022/08/28 02:20:05;;;;;;;15.20;13.40;;;23.10;94.20;;;;;;6135243;23;20142;-84
2022/08/28 02:22:32;;;;;;;13.80;12.35;;;23.10;94.40;;;;;;6135511;23;20146;-85
2022/08/28 02:25:00;;;;;;;14.70;13.02;;;23.00;94.40;;;;;;6159922;23;20155;-84
2022/08/28 02:27:27;;;;;;;14.95;13.20;;;23.00;94.20;;;;;;6109767;23;20237;-85
2022/08/28 02:29:54;;;;;;;14.75;13.15;;;23.00;94.30;;;;;;6109609;23;20193;-84
2022/08/28 02:32:20;;;;;;;14.65;12.85;;;23.00;94.40;;;;;;6135503;23;20147;-84
2022/08/28 02:34:45;;;;;;;14.05;12.65;;;23.00;94.40;;;;;;6135134;23;20177;-85
2022/08/28 02:37:12;;;;;;;13.85;12.32;;;23.00;94.30;;;;;;6110601;23;20173;-85
2022/08/28 02:39:38;;;;;;;14.13;12.63;;;23.00;94.30;;;;;;6135301;23;20273;-86
2022/08/28 02:42:04;;;;;;;14.35;12.85;;;23.00;94.30;;;;;;6135758;23;20154;-84
2022/08/28 02:44:34;;;;;;;13.80;12.30;;;23.00;94.30;;;;;;6135025;23;20135;-85
2022/08/28 02:47:01;;;;;;;14.18;12.68;;;23.00;94.30;;;;;;6109972;23;20155;-85
2022/08/28 02:49:29;;;;;;;14.90;13.05;;;23.00;94.30;;;;;;6109983;23;20220;-84
2022/08/28 02:51:56;;;;;;;15.02;13.43;;;23.00;94.40;;;;;;6159743;23;20197;-85
2022/08/28 02:54:23;;;;;;;14.05;12.55;;;22.90;94.50;;;;;;6134883;23;20138;-85
2022/08/28 02:56:49;;;;;;;14.23;12.73;;;23.00;94.40;;;;;;6134952;23;20215;-85
2022/08/28 02:59:15;;;;;;;14.02;12.52;;;23.00;94.70;;;;;;6135295;23;20131;-85
2022/08/28 03:01:40;;;;;;;13.80;12.30;;;23.00;94.50;;;;;;6110358;23;20143;-85
2022/08/28 03:04:06;;;;;;;14.82;13.20;;;23.00;94.50;;;;;;6185808;23;20170;-85
2022/08/28 03:06:32;;;;;;;14.20;12.70;;;23.00;94.50;;;;;;6110390;23;20157;-84
2022/08/28 03:08:58;;;;;;;15.15;12.77;;;23.00;94.50;;;;;;6159344;23;20156;-84
2022/08/28 03:11:25;;;;;;;14.50;12.98;;;23.00;94.50;;;;;;6135309;23;20194;-85
2022/08/28 03:13:51;;;;;;;14.38;12.77;;;23.00;94.30;;;;;;6135083;23;20162;-85
2022/08/28 03:16:16;;;;;;;14.02;12.52;;;23.00;94.50;;;;;;6110854;23;20143;-84
2022/08/28 03:18:42;;;;;;;15.18;13.57;;;22.90;94.40;;;;;;6134838;23;20142;-85
2022/08/28 03:21:08;;;;;;;15.32;12.82;;;22.90;94.50;;;;;;6160076;23;20158;-84
2022/08/28 03:23:35;;;;;;;13.75;12.32;;;22.90;94.40;;;;;;6110477;23;20464;-84
2022/08/28 03:26:06;;;;;;;14.35;12.77;;;22.90;94.40;;;;;;6159378;23;20447;-85
2022/08/28 03:28:33;;;;;;;13.77;12.32;;;22.90;94.30;;;;;;6110385;23;20216;-85
2022/08/28 03:30:59;;;;;;;14.45;12.82;;;22.90;94.40;;;;;;6112713;23;20232;-85
2022/08/28 03:33:26;;;;;;;15.73;13.27;;;22.90;94.30;;;;;;6187593;23;20138;-84
2022/08/28 03:35:51;;;;;;;13.77;12.27;;;22.90;94.30;;;;;;6112323;23;20517;-85
2022/08/28 03:38:17;;;;;;;14.43;12.88;;;22.90;94.30;;;;;;6112236;23;20571;-84
2022/08/28 03:40:44;;;;;;;14.30;12.70;;;22.90;94.40;;;;;;6112429;23;20151;-85
2022/08/28 03:43:12;;;;;;;14.23;12.48;;;23.00;94.50;;;;;;6136775;23;20167;-85
2022/08/28 03:45:37;;;;;;;13.88;12.35;;;22.90;94.40;;;;;;6112720;23;20455;-84
2022/08/28 03:48:03;;;;;;;14.40;12.73;;;22.90;94.30;;;;;;6136655;23;20589;-84
2022/08/28 03:50:30;;;;;;;13.90;12.40;;;22.90;94.40;;;;;;6136915;23;20190;-85
2022/08/28 03:52:56;;;;;;;13.80;12.32;;;22.90;94.40;;;;;;6136825;23;20135;-84
2022/08/28 03:55:21;;;;;;;13.90;12.43;;;22.90;94.40;;;;;;6111889;23;20533;-84
2022/08/28 03:57:49;;;;;;;14.52;12.95;;;22.90;94.30;;;;;;6112093;23;20175;-84
2022/08/28 04:00:15;;;;;;;13.98;12.55;;;22.90;94.20;;;;;;6160894;23;20579;-84
2022/08/28 04:02:42;;;;;;;14.73;12.60;;;22.90;94.40;;;;;;6111932;23;20154;-84
2022/08/28 04:05:09;;;;;;;14.02;12.52;;;22.90;94.30;;;;;;6135737;23;20575;-87
2022/08/28 04:07:36;;;;;;;13.48;12.07;;;22.90;94.20;;;;;;6063804;23;20155;-85
2022/08/28 04:10:02;;;;;;;13.48;11.88;;;22.90;94.40;;;;;;6160402;23;20281;-85
2022/08/28 04:12:29;;;;;;;13.93;12.38;;;22.90;94.30;;;;;;6136870;23;20170;-85
2022/08/28 04:14:56;;;;;;;13.30;11.93;;;22.90;94.10;;;;;;6160743;23;20149;-85
2022/08/28 04:17:22;;;;;;;13.68;12.20;;;22.90;94.20;;;;;;6160902;23;20135;-85
2022/08/28 04:19:52;;;;;;;14.20;12.40;;;22.90;94.30;;;;;;6187139;23;20213;-84
2022/08/28 04:22:17;;;;;;;14.25;12.73;;;22.90;94.20;;;;;;6160793;23;20142;-84
2022/08/28 04:24:43;;;;;;;13.50;12.10;;;22.90;94.30;;;;;;6160722;23;20139;-85
2022/08/28 04:27:08;;;;;;;13.90;12.40;;;22.90;94.40;;;;;;6161108;23;20189;-85
2022/08/28 04:29:34;;;;;;;14.45;12.95;;;22.90;94.30;;;;;;6160998;23;20147;-85
2022/08/28 04:32:01;;;;;;;13.27;11.88;;;22.90;94.30;;;;;;6111763;23;20139;-85
2022/08/28 04:34:27;;;;;;;14.30;12.80;;;22.90;94.20;;;;;;6136081;23;20585;-84
2022/08/28 04:36:53;;;;;;;13.80;12.30;;;22.90;94.20;;;;;;6160984;23;20150;-85
2022/08/28 04:39:19;;;;;;;14.20;12.70;;;22.90;94.30;;;;;;6160649;23;20138;-85
2022/08/28 04:41:45;;;;;;;13.63;12.13;;;22.90;94.30;;;;;;6160399;23;20142;-85
2022/08/28 04:44:11;;;;;;;13.57;11.73;;;22.90;94.30;;;;;;6186691;23;20142;-85
2022/08/28 04:46:37;;;;;;;13.02;11.70;;;22.90;94.10;;;;;;6160467;23;20171;-84
2022/08/28 04:49:03;;;;;;;13.93;12.45;;;22.90;94.20;;;;;;6136049;23;20536;-84
2022/08/28 04:51:29;;;;;;;13.82;12.30;;;22.90;94.30;;;;;;6136381;23;20251;-85
2022/08/28 04:53:56;;;;;;;13.63;12.20;;;22.90;94.30;;;;;;6111517;23;20217;-84
2022/08/28 04:56:21;;;;;;;13.20;11.77;;;22.80;94.10;;;;;;6111427;23;20143;-85
2022/08/28 04:58:47;;;;;;;13.10;11.70;;;22.90;94.20;;;;;;6111983;23;20159;-84
2022/08/28 05:01:17;;;;;;;14.07;12.57;;;22.80;94.10;;;;;;6136353;23;20490;-84
2022/08/28 05:03:44;;;;;;;13.05;11.65;;;22.90;94.10;;;;;;6112234;23;20153;-84
2022/08/28 05:06:12;;;;;;;13.10;11.70;;;22.90;94.20;;;;;;6111701;23;20149;-86
2022/08/28 05:08:37;;;;;;;14.25;12.38;;;22.80;94.20;;;;;;6186626;23;20139;-85
2022/08/28 05:11:18;;;;;;;14.55;12.65;;;22.80;94.10;;;;;;6135616;23;20329;-86
2022/08/28 05:13:44;;;;;;;13.25;11.63;;;22.80;94.10;;;;;;6160498;23;20513;-85
2022/08/28 05:16:10;;;;;;;14.00;12.50;;;22.80;93.90;;;;;;6136049;23;20162;-85
2022/08/28 05:18:36;;;;;;;13.45;11.85;;;22.80;93.70;;;;;;6160237;23;20127;-86
2022/08/28 05:21:02;;;;;;;13.90;11.98;;;22.90;93.50;;;;;;6135841;23;20138;-85
2022/08/28 05:23:28;;;;;;;12.77;11.48;;;22.90;93.70;;;;;;6160800;23;20146;-85
2022/08/28 05:25:54;;;;;;;13.13;11.73;;;22.90;93.40;;;;;;6111854;23;20161;-84
2022/08/28 05:28:19;;;;;;;12.57;11.05;;;22.90;93.60;;;;;;6136420;23;20173;-85
2022/08/28 05:30:46;;;;;;;13.10;11.68;;;22.80;93.10;;;;;;6137375;23;20193;-84
2022/08/28 05:33:12;;;;;;;13.63;12.10;;;22.80;93.20;;;;;;6138848;23;20155;-86
2022/08/28 05:35:41;;;;;;;13.63;12.13;;;22.80;93.50;;;;;;6139073;23;20127;-85
2022/08/28 05:38:07;;;;;;;13.25;11.85;;;22.90;92.80;;;;;;6138520;23;20214;-85
2022/08/28 05:40:33;;;;;;;14.27;12.27;;;22.90;93.40;;;;;;6137333;23;20490;-86
2022/08/28 05:42:59;;;;;;;13.65;10.32;;;22.80;93.10;;;;;;6112445;23;20151;-86
2022/08/28 05:45:25;;;;;;;12.60;10.40;;;22.80;91.60;;;;;;6187915;23;20142;-84
2022/08/28 05:47:50;;;;;;;12.77;10.52;;;22.90;92.20;;;;;;6111946;23;20255;-87
2022/08/28 05:50:16;;;;;;;13.23;10.32;;;22.80;92.00;;;;;;6137245;23;20190;-88
2022/08/28 05:52:47;;;;;;;11.75;10.55;;;22.90;91.80;;;;;;6162869;23;20520;-85
2022/08/28 05:55:16;;;;;;;12.00;10.30;;;22.90;92.40;;;;;;6138466;23;20533;-85
2022/08/28 05:57:45;;;;;;;12.75;10.98;;;22.90;91.60;;;;;;6090141;23;20150;-86
2022/08/28 06:00:17;;;;;;;13.05;11.63;;;22.80;91.90;;;;;;6145344;23;20177;-85
2022/08/28 06:02:43;;;;;;;12.23;9.77;;;22.80;92.30;;;;;;6119435;23;20165;-85
2022/08/28 06:05:11;;;;;;;16.15;10.27;;;22.80;91.40;;;;;;6144612;23;20135;-85
2022/08/28 06:07:37;;;;;;;12.02;9.50;;;22.80;91.50;;;;;;6142792;23;20465;-84
2022/08/28 06:10:03;;;;;;;11.73;8.77;;;22.90;91.10;;;;;;6115968;23;20193;-84
2022/08/28 06:12:30;;;;;;;13.32;8.82;;;22.80;90.50;;;;;;6166045;23;20575;-84
2022/08/28 06:14:58;;;;;;;12.02;8.10;;;22.90;90.10;;;;;;6162165;23;20574;-84
2022/08/28 06:17:24;;;;;;;11.60;8.82;;;22.90;89.70;;;;;;6137163;23;20226;-83
2022/08/28 06:19:53;;;;;;;12.95;7.63;;;22.90;89.40;;;;;;6161016;23;20127;-83
2022/08/28 06:22:21;;;;;;;10.65;6.40;;;22.90;87.70;;;;;;6112185;23;20158;-85
2022/08/28 06:24:47;;;;;;;10.98;6.95;;;23.00;86.30;;;;;;6111651;23;20182;-84
2022/08/28 06:27:15;;;;;;;7.78;5.97;;;22.90;85.50;;;;;;6080641;23;20251;-85
2022/08/28 06:29:42;;;;;;;7.95;6.40;;;23.00;85.50;;;;;;6046208;23;20159;-84
2022/08/28 06:32:12;;;;;;;8.75;6.35;;;22.90;85.90;;;;;;6000741;23;20221;-83
2022/08/28 06:34:38;;;;;;;10.00;6.75;;;22.90;85.10;;;;;;5960653;24;20165;-83
2022/08/28 06:37:04;;;;;;;11.43;6.80;;;23.00;86.10;;;;;;5959558;24;20156;-84
2022/08/28 06:39:35;;;;;;;8.00;5.18;;;22.90;85.80;;;;;;5959740;24;20456;-85
2022/08/28 06:42:02;;;;;;;8.40;6.25;;;23.00;84.20;;;;;;5937448;24;20160;-84
2022/08/28 06:44:48;;;;;;;9.20;6.55;;;23.00;84.30;;;;;;5914019;24;20166;-85
2022/08/28 06:47:15;;;;;;;11.43;5.32;;;22.90;84.00;;;;;;5960899;24;20171;-84
2022/08/28 06:49:43;;;;;;;8.73;5.63;;;22.90;83.80;;;;;;5938475;24;20155;-83
2022/08/28 06:52:19;;;;;;;9.60;5.57;;;23.00;83.80;;;;;;5938425;24;20159;-85
2022/08/28 06:55:06;;;;;;;9.90;5.65;;;23.00;83.70;;;;;;5919473;24;20178;-84
2022/08/28 06:57:38;;;;;;;12.52;6.57;;;23.00;84.20;;;;;;5906347;23;20163;-83
2022/08/28 07:00:09;;;;;;;9.07;6.40;;;23.00;84.50;;;;;;5932612;23;20166;-84
2022/08/28 07:02:39;;;;;;;8.68;5.88;;;23.00;84.20;;;;;;5971954;23;20213;-82
2022/08/28 07:05:07;;;;;;;10.60;5.97;;;22.90;83.90;;;;;;5970673;23;20239;-83
2022/08/28 07:07:37;;;;;;;7.75;4.80;;;23.00;82.90;;;;;;5996432;23;20150;-82
2022/08/28 07:10:03;;;;;;;10.70;4.68;;;23.00;82.50;;;;;;5949796;23;20252;-82
2022/08/28 07:12:29;;;;;;;9.27;4.47;;;23.00;81.60;;;;;;5991235;23;20581;-82
2022/08/28 07:14:56;;;;;;;12.55;4.82;;;23.00;80.60;;;;;;6046943;23;20221;-85
2022/08/28 07:17:22;;;;;;;9.88;5.68;;;23.00;80.70;;;;;;6023646;23;20260;-85
2022/08/28 07:19:51;;;;;;;8.75;5.20;;;23.00;81.00;;;;;;6023632;23;20149;-84
2022/08/28 07:22:20;;;;;;;7.65;4.18;;;23.00;80.90;;;;;;6023752;23;20217;-84
2022/08/28 07:24:46;;;;;;;6.13;3.90;;;23.00;80.10;;;;;;6026585;23;20613;-83
2022/08/28 07:27:16;;;;;;;4.78;3.80;;;22.90;79.70;;;;;;6022073;23;20153;-82
2022/08/28 07:29:46;;;;;;;7.40;3.65;;;22.90;80.10;;;;;;5996871;23;20153;-85
2022/08/28 07:32:12;;;;;;;4.10;3.33;;;22.90;80.20;;;;;;6104256;23;20234;-84
2022/08/28 07:34:46;;;;;;;5.63;4.07;;;22.90;80.50;;;;;;6106566;23;20234;-85
2022/08/28 07:37:13;;;;;;;5.47;3.80;;;22.80;80.50;;;;;;6130947;23;20142;-84
2022/08/28 07:39:45;;;;;;;6.97;3.80;;;22.90;80.10;;;;;;6158712;23;20132;-82
2022/08/28 07:44:47;;;;;;;5.53;3.63;;;22.80;79.60;;;;;;6110120;23;20155;-84
2022/08/28 07:45:01;;;;;;;5.57;4.20;;;22.80;79.20;;;;;;6134260;23;20187;-83
2022/08/28 07:47:30;;;;;;;5.63;3.20;;;22.80;79.50;;;;;;6107940;23;20162;-83
2022/08/28 07:49:58;;;;;;;6.47;3.58;;;22.70;78.90;;;;;;6135964;23;20151;-82
2022/08/28 07:52:29;;;;;;;6.53;3.88;;;22.70;80.30;;;;;;6111771;23;20156;-84
2022/08/28 07:55:21;;;;;;;4.45;3.85;;;22.70;80.30;;;;;;6137074;23;20598;-85
2022/08/28 07:57:48;;;;;;;9.40;5.18;;;22.70;81.60;;;;;;6051356;23;20597;-85
2022/08/28 08:00:15;;;;;;;10.77;4.60;;;22.70;81.90;;;;;;6003321;23;20157;-84
2022/08/28 08:02:44;;;;;;;6.65;3.78;;;22.70;81.50;;;;;;6070176;23;20241;-85
2022/08/28 08:05:24;;;;;;;6.72;3.88;;;22.70;80.10;;;;;;6047159;23;20209;-85
2022/08/28 08:07:51;;;;;;;7.13;3.63;;;22.60;80.10;;;;;;6073640;23;20178;-84
2022/08/28 08:10:17;;;;;;;4.63;3.80;;;22.60;80.20;;;;;;6073192;23;20300;-83
2022/08/28 08:12:43;;;;;;;5.35;3.80;;;22.60;79.90;;;;;;6049313;23;20588;-83
2022/08/28 08:15:10;;;;;;;7.07;3.58;;;22.60;80.60;;;;;;6051574;23;20153;-85
2022/08/28 08:17:41;;;;;;;7.78;3.53;;;22.60;80.00;;;;;;6078213;23;20166;-84
2022/08/28 08:20:12;;;;;;;6.35;3.45;;;22.60;80.30;;;;;;5981339;23;20177;-84
2022/08/28 08:22:44;;;;;;;6.63;3.42;;;22.60;79.80;;;;;;6005807;23;20165;-83
2022/08/28 08:25:10;;;;;;;5.90;3.25;;;22.60;79.10;;;;;;6000387;23;20221;-84
2022/08/28 08:27:40;;;;;;;6.68;3.60;;;22.50;79.50;;;;;;6073246;23;20154;-86
2022/08/28 08:30:11;;;;;;;5.10;3.25;;;22.50;79.80;;;;;;6024551;23;20183;-82
2022/08/28 08:32:40;;;;;;;6.53;2.90;;;22.60;79.20;;;;;;6001708;23;20149;-83
2022/08/28 08:35:42;;;;;;;5.78;2.95;;;22.60;78.60;;;;;;6149771;23;20155;-83
2022/08/28 08:38:11;;;;;;;7.63;3.03;;;22.60;79.40;;;;;;6077670;23;20171;-85
2022/08/28 08:41:04;;;;;;;5.47;2.75;;;22.60;78.50;;;;;;6076603;23;20191;-85
2022/08/28 08:43:40;;;;;;;4.38;3.45;;;22.60;78.20;;;;;;6041254;23;20225;-84
2022/08/28 08:46:16;;;;;;;7.50;3.88;;;22.60;78.50;;;;;;6040926;23;20537;-84
2022/08/28 08:48:47;;;;;;;7.03;3.80;;;22.60;79.20;;;;;;6040279;23;20229;-86
2022/08/28 08:51:19;;;;;;;6.97;3.58;;;22.50;80.00;;;;;;6043403;23;20190;-84
2022/08/28 08:53:54;;;;;;;5.82;3.72;;;22.50;79.10;;;;;;6041454;23;20181;-84
2022/08/28 08:56:22;;;;;;;5.65;3.60;;;22.60;78.60;;;;;;6040413;23;20253;-84
2022/08/28 08:58:51;;;;;;;6.82;4.30;;;22.60;79.20;;;;;;6038618;23;20154;-84
2022/08/28 09:01:37;;;;;;;5.75;4.00;;;22.60;79.90;;;;;;6064795;23;20162;-83
2022/08/28 09:04:14;;;;;;;7.72;3.95;;;22.50;79.70;;;;;;6037121;23;20200;-84
2022/08/28 09:06:47;;;;;;;8.73;4.15;;;22.60;79.80;;;;;;6039318;23;20213;-83
2022/08/28 09:09:23;;;;;;;5.70;3.92;;;22.60;79.40;;;;;;6038281;23;20213;-85
2022/08/28 09:11:56;;;;;;;12.55;4.20;;;22.60;79.20;;;;;;6066288;23;20202;-85
2022/08/28 09:14:35;;;;;;;8.07;3.90;;;22.50;79.50;;;;;;6058886;23;20153;-85
2022/08/28 09:17:09;;;;;;;6.10;3.70;;;22.60;79.90;;;;;;6011784;23;20174;-86
2022/08/28 09:19:39;;;;;;;7.70;3.78;;;22.60;80.40;;;;;;5979082;23;20149;-86
2022/08/28 09:22:31;;;;;;;9.07;3.75;;;22.60;80.50;;;;;;6069703;23;20161;-85
2022/08/28 09:24:58;;;;;;;5.43;3.60;;;22.60;80.40;;;;;;6042495;23;20281;-84
2022/08/28 09:27:30;;;;;;;7.55;3.90;;;22.50;80.00;;;;;;6048754;23;20237;-85
2022/08/28 09:30:02;;;;;;;7.43;3.53;;;22.60;80.10;;;;;;6046349;23;20196;-85
2022/08/28 09:32:45;;;;;;;13.52;4.20;;;22.60;79.80;;;;;;6046955;23;20153;-85
2022/08/28 09:35:48;;;;;;;10.40;4.07;;;22.60;79.50;;;;;;6027036;23;20299;-83
2022/08/28 09:38:25;;;;;;;9.13;5.20;;;22.70;79.30;;;;;;6025136;23;20153;-84
2022/08/28 09:44:25;;;;;;;;;;;;;;;;;;;;;
2022/08/28 09:47:01;;;;;;;13.38;6.38;;;22.60;78.60;;;;;;5963521;23;20160;-83
2022/08/28 09:49:47;;;;;;;10.90;5.32;;;22.60;78.50;;;;;;6120262;23;20174;-87
2022/08/28 09:52:19;;;;;;;8.18;4.65;;;22.60;79.00;;;;;;6046459;23;20240;-84
2022/08/28 09:55:39;;;;;;;10.30;5.60;;;22.60;79.00;;;;;;6103129;23;20148;-87
2022/08/28 09:57:54;;;;;;;11.35;6.25;;;22.60;78.40;;;;;;6053913;23;20153;-82
2022/08/28 10:00:28;;;;;;;9.30;5.25;;;22.70;78.00;;;;;;6058204;23;20291;-86
2022/08/28 10:03:05;;;;;;;10.88;5.53;;;22.70;78.40;;;;;;6077654;23;20156;-84
2022/08/28 10:09:22;;;;;;;6.97;4.40;;;22.60;79.10;;;;;;6074160;23;20199;-84
2022/08/28 10:12:31;;;;;;;8.77;3.88;;;22.60;78.70;;;;;;6000069;23;20248;-84
2022/08/28 10:15:27;;;;;;;9.48;4.25;;;22.70;78.50;;;;;;6047838;23;20158;-84
2022/08/28 10:18:30;;;;;;;8.63;4.82;;;22.70;78.80;;;;;;6023090;23;20266;-85
2022/08/28 10:21:16;;;;;;;10.73;4.35;;;22.70;78.40;;;;;;6072546;23;20154;-86
2022/08/28 10:24:04;;;;;;;10.40;4.85;;;22.70;77.90;;;;;;6028079;23;20218;-83
2022/08/28 10:27:19;;;;;;;10.65;4.70;;;22.70;77.90;;;;;;5999556;23;20197;-83
2022/08/28 10:33:32;;;;;;;9.65;6.57;;;22.70;76.40;;;;;;5943599;24;20585;-84
2022/08/28 10:36:17;;;;;;;12.80;7.60;;;22.60;76.50;;;;;;5872304;24;20160;-82
2022/08/28 10:39:08;;;;;;;8.52;6.60;;;22.60;76.50;;;;;;5905834;24;20222;-83
2022/08/28 10:41:51;;;;;;;13.55;6.90;;;22.60;76.60;;;;;;5962291;24;20194;-84
2022/08/28 10:44:26;;;;;;;11.60;5.55;;;22.60;77.10;;;;;;5976160;24;20210;-83
2022/08/28 10:47:14;;;;;;;;;;;;;;;;;;;;;
2022/08/28 10:49:43;;;;;;;9.05;4.47;;;22.60;77.60;;;;;;5946463;24;20318;-85
2022/08/28 10:52:21;;;;;;;;;;;;;;;;;;;;;
2022/08/28 10:55:11;;;;;;;14.07;4.47;;;22.60;78.60;;;;;;5955037;24;20511;-84
2022/08/28 10:58:04;;;;;;;9.93;3.53;;;22.50;77.70;;;;;;5958448;24;20215;-85
2022/08/28 11:00:41;;;;;;;6.00;3.58;;;22.60;77.60;;;;;;5969738;23;20132;-84
2022/08/28 11:03:20;;;;;;;7.65;3.60;;;22.50;77.90;;;;;;5963572;23;20158;-84
2022/08/28 11:05:52;;;;;;;9.13;3.80;;;22.50;78.10;;;;;;5968283;24;20163;-83
2022/08/28 11:09:23;;;;;;;4.57;2.85;;;22.50;77.90;;;;;;5961540;23;20156;-84
2022/08/28 11:55:08;;;;;;;8.07;5.50;;;22.40;71.50;;;;;;5843311;22;7518795;-82
2022/08/28 11:58:06;;;;;;;6.32;4.47;;;22.30;71.60;;;;;;6166102;23;20216;-82
2022/08/28 12:01:13;;;;;;;12.75;4.50;;;22.30;71.40;;;;;;6026045;23;20497;-81
2022/08/28 12:04:03;;;;;;;10.48;4.53;;;22.30;70.50;;;;;;6026677;23;20184;-84
2022/08/28 12:06:58;;;;;;;11.57;5.78;;;22.30;71.70;;;;;;6013653;23;20161;-82
2022/08/28 12:09:48;;;;;;;11.20;6.72;;;22.30;71.00;;;;;;6019059;23;20206;-82
2022/08/28 12:12:48;;;;;;;14.80;8.80;;;22.20;70.90;;;;;;5971284;23;20173;-80
2022/08/28 12:15:46;;;;;;;19.30;11.70;;;22.20;71.00;;;;;;5975600;23;20170;-83
2022/08/28 12:18:55;;;;;;;14.98;8.23;;;22.20;70.30;;;;;;5968676;24;20662;-83
2022/08/28 12:21:25;;;;;;;16.38;6.97;;;22.20;71.00;;;;;;5946746;24;20429;-83
2022/08/28 12:24:24;;;;;;;;;;;;;;;;;;;;;
2022/08/28 12:26:55;;;;;;;35.55;18.75;;;22.10;70.30;;;;;;5883810;24;20229;-82
2022/08/28 12:29:29;;;;;;;25.00;15.00;;;22.10;69.80;;;;;;5836805;24;20157;-83
2022/08/28 12:32:22;;;;;;;20.40;12.93;;;22.10;70.80;;;;;;5900488;24;20353;-85
2022/08/28 12:35:07;;;;;;;18.20;10.75;;;22.10;70.60;;;;;;5874372;24;20262;-83
2022/08/28 12:38:01;;;;;;;20.30;13.05;;;22.10;70.80;;;;;;5964534;23;20167;-84
2022/08/28 12:41:16;;;;;;;20.67;14.32;;;22.10;71.80;;;;;;5967994;23;20170;-83
2022/08/28 12:43:45;;;;;;;17.23;11.23;;;22.10;72.50;;;;;;5893300;24;20672;-84
2022/08/28 12:46:41;;;;;;;16.10;9.20;;;22.10;73.10;;;;;;5863362;24;20497;-84
2022/08/28 12:49:41;;;;;;;;;;;;;;;;;;;;;
2022/08/28 12:52:19;;;;;;;14.93;8.25;;;22.10;73.40;;;;;;5900916;24;20169;-83
2022/08/28 12:54:56;;;;;;;11.70;7.50;;;22.10;74.00;;;;;;5857318;24;20209;-83
2022/08/28 12:57:33;;;;;;;12.25;6.22;;;22.00;73.90;;;;;;5905236;24;20172;-82
2022/08/28 13:00:16;;;;;;;11.10;5.82;;;22.00;73.80;;;;;;5915496;24;20155;-84
2022/08/28 13:03:29;;;;;;;10.77;5.35;;;22.00;74.00;;;;;;5890750;24;20166;-84
2022/08/28 13:06:27;;;;;;;10.23;5.90;;;22.00;74.70;;;;;;5957742;24;20189;-84
2022/08/28 13:09:21;;;;;;;10.85;5.38;;;21.90;74.40;;;;;;5910374;24;20165;-83
2022/08/28 13:11:52;;;;;;;10.07;5.60;;;22.00;74.40;;;;;;5912606;24;20247;-84
2022/08/28 13:14:39;;;;;;;11.00;5.85;;;22.00;74.20;;;;;;5907688;24;20282;-84
2022/08/28 13:17:22;;;;;;;;;;;;;;;;;;;;;
2022/08/28 13:23:32;;;;;;;11.43;5.45;;;21.90;76.00;;;;;;5945483;24;20167;-85
2022/08/28 13:26:05;;;;;;;15.57;5.57;;;22.00;74.90;;;;;;5898957;24;20161;-83
2022/08/28 13:29:03;;;;;;;9.02;5.20;;;22.00;74.80;;;;;;5876162;24;20164;-81
2022/08/28 13:31:31;;;;;;;7.75;5.00;;;21.90;75.30;;;;;;5881222;24;20189;-83
2022/08/28 13:34:24;;;;;;;9.82;5.00;;;22.00;74.90;;;;;;5879486;24;20176;-84
2022/08/28 13:36:58;;;;;;;6.97;4.40;;;22.00;74.30;;;;;;5922159;24;20211;-84
2022/08/28 13:39:27;;;;;;;7.28;4.65;;;22.00;74.10;;;;;;5877263;24;20293;-83
2022/08/28 13:41:55;;;;;;;8.32;4.50;;;22.00;74.00;;;;;;5877595;24;20261;-85
2022/08/28 13:44:44;;;;;;;6.88;3.30;;;22.00;73.90;;;;;;5854520;24;20158;-83
2022/08/28 13:47:12;;;;;;;9.48;3.90;;;22.00;73.30;;;;;;5945204;24;20159;-85
2022/08/28 13:49:38;;;;;;;7.68;3.30;;;21.90;73.00;;;;;;5981358;23;20184;-83
2022/08/28 13:52:07;;;;;;;6.38;3.22;;;22.00;72.80;;;;;;5979494;23;20187;-84
2022/08/28 13:54:36;;;;;;;7.10;3.30;;;22.00;72.70;;;;;;5957609;24;20214;-83
2022/08/28 13:57:02;;;;;;;5.00;3.00;;;22.00;72.80;;;;;;5978895;24;20189;-83
2022/08/28 13:59:28;;;;;;;6.47;3.13;;;22.00;72.80;;;;;;6010717;23;20149;-81
2022/08/28 14:04:39;;;;;;;6.50;2.85;;;21.90;70.80;;;;;;6062840;23;20138;-82
2022/08/28 14:07:06;;;;;;;7.97;3.25;;;21.90;71.30;;;;;;6062280;23;20161;-81
2022/08/28 14:09:33;;;;;;;5.65;3.15;;;21.90;71.70;;;;;;6016120;23;20149;-82
2022/08/28 14:12:02;;;;;;;5.53;3.22;;;21.90;71.40;;;;;;6068728;23;20455;-81
2022/08/28 14:14:28;;;;;;;5.63;3.50;;;21.90;71.60;;;;;;6020422;23;20458;-82